Aviation Digital Data Service (ADDS)

Output produced by METARs form (1121 UTC 18 January 2022)
found at http://www.aviationweather.gov/metar/data/
 
METAR text: EDDV 181050Z 30008KT 9999 BKN006 07/06 Q1037 NOSIG
Conditions at: EDDV (HANNOVER , DE) observed 1050 UTC 18 January 2022
Temperature: 7.0°C (45°F)
Dewpoint: 6.0°C (43°F) [RH = 93%]
Pressure (altimeter): 30.62 inches Hg (1037.0 mb)
Winds: from the WNW (300 degrees) at 9 MPH (8 knots; 4.1 m/s)
Visibility: 6 or more miles (10+ km)
Ceiling: 600 feet AGL
Clouds: broken clouds at 600 feet AGL
Weather: no significant weather observed at this time

METAR text: EDDV 181020Z 28006KT 9999 BKN005 BKN026 07/06 Q1037 TEMPO 4000 -DZ
Conditions at: EDDV (HANNOVER , DE) observed 1020 UTC 18 January 2022
Temperature: 7.0°C (45°F)
Dewpoint: 6.0°C (43°F) [RH = 93%]
Pressure (altimeter): 30.62 inches Hg (1037.0 mb)
Winds: from the W (280 degrees) at 7 MPH (6 knots; 3.1 m/s)
Visibility: 6 or more miles (10+ km)
Ceiling: 500 feet AGL
Clouds: broken clouds at 500 feet AGL
broken clouds at 2600 feet AGL
Weather: no significant weather observed at this time

METAR text: EDDV 180950Z 28008KT 9999 BKN005 BKN026 07/06 Q1037 TEMPO 4000 -DZ
Conditions at: EDDV (HANNOVER , DE) observed 0950 UTC 18 January 2022
Temperature: 7.0°C (45°F)
Dewpoint: 6.0°C (43°F) [RH = 93%]
Pressure (altimeter): 30.62 inches Hg (1037.0 mb)
Winds: from the W (280 degrees) at 9 MPH (8 knots; 4.1 m/s)
Visibility: 6 or more miles (10+ km)
Ceiling: 500 feet AGL
Clouds: broken clouds at 500 feet AGL
broken clouds at 2600 feet AGL
Weather: no significant weather observed at this time

METAR text: EDDV 180920Z 28007KT 250V310 7000 BKN004 BKN026 06/06 Q1037 TEMPO 4000 -DZ
Conditions at: EDDV (HANNOVER , DE) observed 0920 UTC 18 January 2022
Temperature: 6.0°C (43°F)
Dewpoint: 6.0°C (43°F) [RH = 100%]
Pressure (altimeter): 30.62 inches Hg (1037.0 mb)
Winds: from the W (280 degrees) at 8 MPH (7 knots; 3.6 m/s)
Visibility: 4 miles ( 7 km)
Ceiling: 400 feet AGL
Clouds: broken clouds at 400 feet AGL
broken clouds at 2600 feet AGL
Weather: no significant weather observed at this time

METAR text: EDDV 180850Z 28007KT 6000 BKN004 06/06 Q1037 TEMPO 4000 -DZ BKN006
Conditions at: EDDV (HANNOVER , DE) observed 0850 UTC 18 January 2022
Temperature: 6.0°C (43°F)
Dewpoint: 6.0°C (43°F) [RH = 100%]
Pressure (altimeter): 30.62 inches Hg (1037.0 mb)
Winds: from the W (280 degrees) at 8 MPH (7 knots; 3.6 m/s)
Visibility: 4 miles ( 6 km)
Ceiling: 400 feet AGL
Clouds: broken clouds at 400 feet AGL
Weather: no significant weather observed at this time

METAR text: EDDV 180820Z 27006KT 4200 -DZ BKN005 06/05 Q1037 NOSIG
Conditions at: EDDV (HANNOVER , DE) observed 0820 UTC 18 January 2022
Temperature: 6.0°C (43°F)
Dewpoint: 5.0°C (41°F) [RH = 93%]
Pressure (altimeter): 30.62 inches Hg (1037.0 mb)
Winds: from the W (270 degrees) at 7 MPH (6 knots; 3.1 m/s)
Visibility: 2.61 miles (4.20 km)
Ceiling: 500 feet AGL
Clouds: broken clouds at 500 feet AGL
Weather: -DZ  (light drizzle)

METAR text: EDDV 180750Z 26004KT 4200 -DZ BKN005 06/05 Q1036 NOSIG
Conditions at: EDDV (HANNOVER , DE) observed 0750 UTC 18 January 2022
Temperature: 6.0°C (43°F)
Dewpoint: 5.0°C (41°F) [RH = 93%]
Pressure (altimeter): 30.59 inches Hg (1036.0 mb)
Winds: from the W (260 degrees) at 5 MPH (4 knots; 2.1 m/s)
Visibility: 2.61 miles (4.20 km)
Ceiling: 500 feet AGL
Clouds: broken clouds at 500 feet AGL
Weather: -DZ  (light drizzle)

METAR text: EDDV 180720Z 26004KT 3600 -DZ BKN004 05/05 Q1036 TEMPO 2000 DZ
Conditions at: EDDV (HANNOVER , DE) observed 0720 UTC 18 January 2022
Temperature: 5.0°C (41°F)
Dewpoint: 5.0°C (41°F) [RH = 100%]
Pressure (altimeter): 30.59 inches Hg (1036.0 mb)
Winds: from the W (260 degrees) at 5 MPH (4 knots; 2.1 m/s)
Visibility: 2.24 miles (3.60 km)
Ceiling: 400 feet AGL
Clouds: broken clouds at 400 feet AGL
Weather: -DZ  (light drizzle)

METAR text: EDDV 180650Z 27004KT 3600 -DZ BKN004 05/05 Q1036 TEMPO 2000 DZ
Conditions at: EDDV (HANNOVER , DE) observed 0650 UTC 18 January 2022
Temperature: 5.0°C (41°F)
Dewpoint: 5.0°C (41°F) [RH = 100%]
Pressure (altimeter): 30.59 inches Hg (1036.0 mb)
Winds: from the W (270 degrees) at 5 MPH (4 knots; 2.1 m/s)
Visibility: 2.24 miles (3.60 km)
Ceiling: 400 feet AGL
Clouds: broken clouds at 400 feet AGL
Weather: -DZ  (light drizzle)

METAR text: EDDV 180620Z VRB02KT 4400 -DZ BKN005 05/05 Q1036 TEMPO 2000 DZ BKN003
Conditions at: EDDV (HANNOVER , DE) observed 0620 UTC 18 January 2022
Temperature: 5.0°C (41°F)
Dewpoint: 5.0°C (41°F) [RH = 100%]
Pressure (altimeter): 30.59 inches Hg (1036.0 mb)
Winds: variable direction winds at 2 MPH (2 knots; 1.0 m/s)
Visibility: 2.73 miles (4.39 km)
Ceiling: 500 feet AGL
Clouds: broken clouds at 500 feet AGL
Weather: -DZ  (light drizzle)

METAR text: EDDV 180550Z 31003KT 280V360 4400 -DZ BKN005 BKN015 05/05 Q1036 TEMPO 2000 DZ BKN003
Conditions at: EDDV (HANNOVER , DE) observed 0550 UTC 18 January 2022
Temperature: 5.0°C (41°F)
Dewpoint: 5.0°C (41°F) [RH = 100%]
Pressure (altimeter): 30.59 inches Hg (1036.0 mb)
Winds: from the NW (310 degrees) at 3 MPH (3 knots; 1.5 m/s)
Visibility: 2.73 miles (4.39 km)
Ceiling: 500 feet AGL
Clouds: broken clouds at 500 feet AGL
broken clouds at 1500 feet AGL
Weather: -DZ  (light drizzle)

METAR text: EDDV 180520Z 27005KT 240V300 4800 -DZ BKN006 BKN015 05/05 Q1035 TEMPO 2000 DZ BKN003
Conditions at: EDDV (HANNOVER , DE) observed 0520 UTC 18 January 2022
Temperature: 5.0°C (41°F)
Dewpoint: 5.0°C (41°F) [RH = 100%]
Pressure (altimeter): 30.56 inches Hg (1035.0 mb)
Winds: from the W (270 degrees) at 6 MPH (5 knots; 2.6 m/s)
Visibility: 2.98 miles (4.80 km)
Ceiling: 600 feet AGL
Clouds: broken clouds at 600 feet AGL
broken clouds at 1500 feet AGL
Weather: -DZ  (light drizzle)

METAR text: EDDV 180450Z 28005KT 6000 -DZ SCT005 BKN015 05/05 Q1035 TEMPO 4500 BKN005
Conditions at: EDDV (HANNOVER , DE) observed 0450 UTC 18 January 2022
Temperature: 5.0°C (41°F)
Dewpoint: 5.0°C (41°F) [RH = 100%]
Pressure (altimeter): 30.56 inches Hg (1035.0 mb)
Winds: from the W (280 degrees) at 6 MPH (5 knots; 2.6 m/s)
Visibility: 4 miles ( 6 km)
Ceiling: 1500 feet AGL
Clouds: scattered clouds at 500 feet AGL
broken clouds at 1500 feet AGL
Weather: -DZ  (light drizzle)

METAR text: EDDV 180420Z 29004KT 260V340 6000 -DZ BKN004 05/05 Q1035 TEMPO 3500 DZ BKN005
Conditions at: EDDV (HANNOVER , DE) observed 0420 UTC 18 January 2022
Temperature: 5.0°C (41°F)
Dewpoint: 5.0°C (41°F) [RH = 100%]
Pressure (altimeter): 30.56 inches Hg (1035.0 mb)
Winds: from the WNW (290 degrees) at 5 MPH (4 knots; 2.1 m/s)
Visibility: 4 miles ( 6 km)
Ceiling: 400 feet AGL
Clouds: broken clouds at 400 feet AGL
Weather: -DZ  (light drizzle)

METAR text: EDDV 180350Z 27006KT 4000 -DZ BKN004 05/05 Q1035 TEMPO 2000 DZ
Conditions at: EDDV (HANNOVER , DE) observed 0350 UTC 18 January 2022
Temperature: 5.0°C (41°F)
Dewpoint: 5.0°C (41°F) [RH = 100%]
Pressure (altimeter): 30.56 inches Hg (1035.0 mb)
Winds: from the W (270 degrees) at 7 MPH (6 knots; 3.1 m/s)
Visibility: 2.49 miles (4.01 km)
Ceiling: 400 feet AGL
Clouds: broken clouds at 400 feet AGL
Weather: -DZ  (light drizzle)

METAR text: EDDV 180320Z 26006KT 8000 -DZ BKN004 05/05 Q1035 REDZ
Conditions at: EDDV (HANNOVER , DE) observed 0320 UTC 18 January 2022
Temperature: 5.0°C (41°F)
Dewpoint: 5.0°C (41°F) [RH = 100%]
Pressure (altimeter): 30.56 inches Hg (1035.0 mb)
Winds: from the W (260 degrees) at 7 MPH (6 knots; 3.1 m/s)
Visibility: 5 miles ( 8 km)
Ceiling: 400 feet AGL
Clouds: broken clouds at 400 feet AGL
Weather: -DZ  (light drizzle)

METAR text: EDDV 180250Z 27004KT 240V300 2800 DZ FEW004 BKN005 05/05 Q1035
Conditions at: EDDV (HANNOVER , DE) observed 0250 UTC 18 January 2022
Temperature: 5.0°C (41°F)
Dewpoint: 5.0°C (41°F) [RH = 100%]
Pressure (altimeter): 30.56 inches Hg (1035.0 mb)
Winds: from the W (270 degrees) at 5 MPH (4 knots; 2.1 m/s)
Visibility: 1.74 miles (2.80 km)
Ceiling: 500 feet AGL
Clouds: few clouds at 400 feet AGL
broken clouds at 500 feet AGL
Weather: DZ  (moderate drizzle)

METAR text: EDDV 180220Z 28005KT 3200 DZ SCT006 BKN012 05/05 Q1035
Conditions at: EDDV (HANNOVER , DE) observed 0220 UTC 18 January 2022
Temperature: 5.0°C (41°F)
Dewpoint: 5.0°C (41°F) [RH = 100%]
Pressure (altimeter): 30.56 inches Hg (1035.0 mb)
Winds: from the W (280 degrees) at 6 MPH (5 knots; 2.6 m/s)
Visibility: 1.99 miles (3.20 km)
Ceiling: 1200 feet AGL
Clouds: scattered clouds at 600 feet AGL
broken clouds at 1200 feet AGL
Weather: DZ  (moderate drizzle)

METAR text: EDDV 180150Z 28006KT 9999 -DZ FEW014 BKN020 05/04 Q1035
Conditions at: EDDV (HANNOVER , DE) observed 0150 UTC 18 January 2022
Temperature: 5.0°C (41°F)
Dewpoint: 4.0°C (39°F) [RH = 93%]
Pressure (altimeter): 30.56 inches Hg (1035.0 mb)
Winds: from the W (280 degrees) at 7 MPH (6 knots; 3.1 m/s)
Visibility: 6 or more miles (10+ km)
Ceiling: 2000 feet AGL
Clouds: few clouds at 1400 feet AGL
broken clouds at 2000 feet AGL
Weather: -DZ  (light drizzle)

METAR text: EDDV 180120Z 28006KT 9999 -RADZ SCT006 BKN018 05/04 Q1035
Conditions at: EDDV (HANNOVER , DE) observed 0120 UTC 18 January 2022
Temperature: 5.0°C (41°F)
Dewpoint: 4.0°C (39°F) [RH = 93%]
Pressure (altimeter): 30.56 inches Hg (1035.0 mb)
Winds: from the W (280 degrees) at 7 MPH (6 knots; 3.1 m/s)
Visibility: 6 or more miles (10+ km)
Ceiling: 1800 feet AGL
Clouds: scattered clouds at 600 feet AGL
broken clouds at 1800 feet AGL
Weather: -RA -DZ  (light rain, light drizzle)

METAR text: EDDV 180050Z 29006KT 8000 -RA FEW006 BKN018 05/04 Q1035
Conditions at: EDDV (HANNOVER , DE) observed 0050 UTC 18 January 2022
Temperature: 5.0°C (41°F)
Dewpoint: 4.0°C (39°F) [RH = 93%]
Pressure (altimeter): 30.56 inches Hg (1035.0 mb)
Winds: from the WNW (290 degrees) at 7 MPH (6 knots; 3.1 m/s)
Visibility: 5 miles ( 8 km)
Ceiling: 1800 feet AGL
Clouds: few clouds at 600 feet AGL
broken clouds at 1800 feet AGL
Weather: -RA  (light rain)

METAR text: EDDV 180020Z 27007KT 4500 -RADZ SCT006 BKN013 05/04 Q1034
Conditions at: EDDV (HANNOVER , DE) observed 0020 UTC 18 January 2022
Temperature: 5.0°C (41°F)
Dewpoint: 4.0°C (39°F) [RH = 93%]
Pressure (altimeter): 30.53 inches Hg (1034.0 mb)
Winds: from the W (270 degrees) at 8 MPH (7 knots; 3.6 m/s)
Visibility: 2.80 miles (4.51 km)
Ceiling: 1300 feet AGL
Clouds: scattered clouds at 600 feet AGL
broken clouds at 1300 feet AGL
Weather: -RA -DZ  (light rain, light drizzle)

METAR text: EDDV 172350Z 27004KT 9999 -RA BKN022 05/03 Q1034
Conditions at: EDDV (HANNOVER , DE) observed 2350 UTC 17 January 2022
Temperature: 5.0°C (41°F)
Dewpoint: 3.0°C (37°F) [RH = 87%]
Pressure (altimeter): 30.53 inches Hg (1034.0 mb)
Winds: from the W (270 degrees) at 5 MPH (4 knots; 2.1 m/s)
Visibility: 6 or more miles (10+ km)
Ceiling: 2200 feet AGL
Clouds: broken clouds at 2200 feet AGL
Weather: -RA  (light rain)

METAR text: EDDV 172320Z 28006KT 9999 BKN026 05/03 Q1034
Conditions at: EDDV (HANNOVER , DE) observed 2320 UTC 17 January 2022
Temperature: 5.0°C (41°F)
Dewpoint: 3.0°C (37°F) [RH = 87%]
Pressure (altimeter): 30.53 inches Hg (1034.0 mb)
Winds: from the W (280 degrees) at 7 MPH (6 knots; 3.1 m/s)
Visibility: 6 or more miles (10+ km)
Ceiling: 2600 feet AGL
Clouds: broken clouds at 2600 feet AGL
Weather: no significant weather observed at this time

METAR text: EDDV 172250Z 27007KT 9999 BKN028 05/03 Q1034
Conditions at: EDDV (HANNOVER , DE) observed 2250 UTC 17 January 2022
Temperature: 5.0°C (41°F)
Dewpoint: 3.0°C (37°F) [RH = 87%]
Pressure (altimeter): 30.53 inches Hg (1034.0 mb)
Winds: from the W (270 degrees) at 8 MPH (7 knots; 3.6 m/s)
Visibility: 6 or more miles (10+ km)
Ceiling: 2800 feet AGL
Clouds: broken clouds at 2800 feet AGL
Weather: no significant weather observed at this time

METAR text: EDDV 172220Z 29009KT 9999 BKN030 05/03 Q1034
Conditions at: EDDV (HANNOVER , DE) observed 2220 UTC 17 January 2022
Temperature: 5.0°C (41°F)
Dewpoint: 3.0°C (37°F) [RH = 87%]
Pressure (altimeter): 30.53 inches Hg (1034.0 mb)
Winds: from the WNW (290 degrees) at 10 MPH (9 knots; 4.6 m/s)
Visibility: 6 or more miles (10+ km)
Ceiling: 3000 feet AGL
Clouds: broken clouds at 3000 feet AGL
Weather: no significant weather observed at this time

METAR text: EDDV 172150Z 29008KT 9999 BKN030 04/03 Q1034
Conditions at: EDDV (HANNOVER , DE) observed 2150 UTC 17 January 2022
Temperature: 4.0°C (39°F)
Dewpoint: 3.0°C (37°F) [RH = 93%]
Pressure (altimeter): 30.53 inches Hg (1034.0 mb)
Winds: from the WNW (290 degrees) at 9 MPH (8 knots; 4.1 m/s)
Visibility: 6 or more miles (10+ km)
Ceiling: 3000 feet AGL
Clouds: broken clouds at 3000 feet AGL
Weather: no significant weather observed at this time

METAR text: EDDV 172120Z 26005KT 9999 BKN030 04/02 Q1034
Conditions at: EDDV (HANNOVER , DE) observed 2120 UTC 17 January 2022
Temperature: 4.0°C (39°F)
Dewpoint: 2.0°C (36°F) [RH = 87%]
Pressure (altimeter): 30.53 inches Hg (1034.0 mb)
Winds: from the W (260 degrees) at 6 MPH (5 knots; 2.6 m/s)
Visibility: 6 or more miles (10+ km)
Ceiling: 3000 feet AGL
Clouds: broken clouds at 3000 feet AGL
Weather: no significant weather observed at this time

METAR text: EDDV 172050Z 29005KT 9999 BKN035 02/01 Q1033 NOSIG
Conditions at: EDDV (HANNOVER , DE) observed 2050 UTC 17 January 2022
Temperature: 2.0°C (36°F)
Dewpoint: 1.0°C (34°F) [RH = 93%]
Pressure (altimeter): 30.50 inches Hg (1033.0 mb)
Winds: from the WNW (290 degrees) at 6 MPH (5 knots; 2.6 m/s)
Visibility: 6 or more miles (10+ km)
Ceiling: 3500 feet AGL
Clouds: broken clouds at 3500 feet AGL
Weather: no significant weather observed at this time

METAR text: EDDV 172020Z 28006KT 9999 BKN035 02/01 Q1033 NOSIG
Conditions at: EDDV (HANNOVER , DE) observed 2020 UTC 17 January 2022
Temperature: 2.0°C (36°F)
Dewpoint: 1.0°C (34°F) [RH = 93%]
Pressure (altimeter): 30.50 inches Hg (1033.0 mb)
Winds: from the W (280 degrees) at 7 MPH (6 knots; 3.1 m/s)
Visibility: 6 or more miles (10+ km)
Ceiling: 3500 feet AGL
Clouds: broken clouds at 3500 feet AGL
Weather: no significant weather observed at this time

METAR text: EDDV 171950Z 30007KT 9999 BKN038 03/01 Q1032 NOSIG
Conditions at: EDDV (HANNOVER , DE) observed 1950 UTC 17 January 2022
Temperature: 3.0°C (37°F)
Dewpoint: 1.0°C (34°F) [RH = 87%]
Pressure (altimeter): 30.47 inches Hg (1032.0 mb)
Winds: from the WNW (300 degrees) at 8 MPH (7 knots; 3.6 m/s)
Visibility: 6 or more miles (10+ km)
Ceiling: 3800 feet AGL
Clouds: broken clouds at 3800 feet AGL
Weather: no significant weather observed at this time

METAR text: EDDV 171920Z 31007KT 9999 BKN038 04/01 Q1032 NOSIG
Conditions at: EDDV (HANNOVER , DE) observed 1920 UTC 17 January 2022
Temperature: 4.0°C (39°F)
Dewpoint: 1.0°C (34°F) [RH = 81%]
Pressure (altimeter): 30.47 inches Hg (1032.0 mb)
Winds: from the NW (310 degrees) at 8 MPH (7 knots; 3.6 m/s)
Visibility: 6 or more miles (10+ km)
Ceiling: 3800 feet AGL
Clouds: broken clouds at 3800 feet AGL
Weather: no significant weather observed at this time

METAR text: EDDV 171850Z 32008KT 9999 BKN037 05/02 Q1032 NOSIG
Conditions at: EDDV (HANNOVER , DE) observed 1850 UTC 17 January 2022
Temperature: 5.0°C (41°F)
Dewpoint: 2.0°C (36°F) [RH = 81%]
Pressure (altimeter): 30.47 inches Hg (1032.0 mb)
Winds: from the NW (320 degrees) at 9 MPH (8 knots; 4.1 m/s)
Visibility: 6 or more miles (10+ km)
Ceiling: 3700 feet AGL
Clouds: broken clouds at 3700 feet AGL
Weather: no significant weather observed at this time

METAR text: EDDV 171820Z 33006KT 9999 BKN037 05/02 Q1032 NOSIG
Conditions at: EDDV (HANNOVER , DE) observed 1820 UTC 17 January 2022
Temperature: 5.0°C (41°F)
Dewpoint: 2.0°C (36°F) [RH = 81%]
Pressure (altimeter): 30.47 inches Hg (1032.0 mb)
Winds: from the NNW (330 degrees) at 7 MPH (6 knots; 3.1 m/s)
Visibility: 6 or more miles (10+ km)
Ceiling: 3700 feet AGL
Clouds: broken clouds at 3700 feet AGL
Weather: no significant weather observed at this time

METAR text: EDDV 171750Z 33007KT 9999 BKN032 05/02 Q1031 NOSIG
Conditions at: EDDV (HANNOVER , DE) observed 1750 UTC 17 January 2022
Temperature: 5.0°C (41°F)
Dewpoint: 2.0°C (36°F) [RH = 81%]
Pressure (altimeter): 30.44 inches Hg (1031.0 mb)
Winds: from the NNW (330 degrees) at 8 MPH (7 knots; 3.6 m/s)
Visibility: 6 or more miles (10+ km)
Ceiling: 3200 feet AGL
Clouds: broken clouds at 3200 feet AGL
Weather: no significant weather observed at this time

METAR text: EDDV 171720Z 31006KT 9999 BKN024 05/03 Q1031 NOSIG
Conditions at: EDDV (HANNOVER , DE) observed 1720 UTC 17 January 2022
Temperature: 5.0°C (41°F)
Dewpoint: 3.0°C (37°F) [RH = 87%]
Pressure (altimeter): 30.44 inches Hg (1031.0 mb)
Winds: from the NW (310 degrees) at 7 MPH (6 knots; 3.1 m/s)
Visibility: 6 or more miles (10+ km)
Ceiling: 2400 feet AGL
Clouds: broken clouds at 2400 feet AGL
Weather: no significant weather observed at this time

METAR text: EDDV 171650Z 33008KT 300V360 9999 -RA FEW015 BKN027 05/03 Q1030 NOSIG
Conditions at: EDDV (HANNOVER , DE) observed 1650 UTC 17 January 2022
Temperature: 5.0°C (41°F)
Dewpoint: 3.0°C (37°F) [RH = 87%]
Pressure (altimeter): 30.41 inches Hg (1030.0 mb)
Winds: from the NNW (330 degrees) at 9 MPH (8 knots; 4.1 m/s)
Visibility: 6 or more miles (10+ km)
Ceiling: 2700 feet AGL
Clouds: few clouds at 1500 feet AGL
broken clouds at 2700 feet AGL
Weather: -RA  (light rain)

METAR text: EDDV 171620Z 31011KT 9999 -RA FEW015 BKN029 05/03 Q1029 NOSIG
Conditions at: EDDV (HANNOVER , DE) observed 1620 UTC 17 January 2022
Temperature: 5.0°C (41°F)
Dewpoint: 3.0°C (37°F) [RH = 87%]
Pressure (altimeter): 30.38 inches Hg (1029.0 mb)
Winds: from the NW (310 degrees) at 13 MPH (11 knots; 5.7 m/s)
Visibility: 6 or more miles (10+ km)
Ceiling: 2900 feet AGL
Clouds: few clouds at 1500 feet AGL
broken clouds at 2900 feet AGL
Weather: -RA  (light rain)

METAR text: EDDV 171550Z 31010KT 9999 FEW015 BKN042 05/03 Q1029 NOSIG
Conditions at: EDDV (HANNOVER , DE) observed 1550 UTC 17 January 2022
Temperature: 5.0°C (41°F)
Dewpoint: 3.0°C (37°F) [RH = 87%]
Pressure (altimeter): 30.38 inches Hg (1029.0 mb)
Winds: from the NW (310 degrees) at 12 MPH (10 knots; 5.1 m/s)
Visibility: 6 or more miles (10+ km)
Ceiling: 4200 feet AGL
Clouds: few clouds at 1500 feet AGL
broken clouds at 4200 feet AGL
Weather: no significant weather observed at this time

METAR text: EDDV 171520Z 32013KT 9999 -RA FEW009 BKN015 BKN031 05/04 Q1028 TEMPO 32015G25KT
Conditions at: EDDV (HANNOVER , DE) observed 1520 UTC 17 January 2022
Temperature: 5.0°C (41°F)
Dewpoint: 4.0°C (39°F) [RH = 93%]
Pressure (altimeter): 30.35 inches Hg (1028.0 mb)
Winds: from the NW (320 degrees) at 15 MPH (13 knots; 6.7 m/s)
Visibility: 6 or more miles (10+ km)
Ceiling: 1500 feet AGL
Clouds: few clouds at 900 feet AGL
broken clouds at 1500 feet AGL
broken clouds at 3100 feet AGL
Weather: -RA  (light rain)

METAR text: EDDV 171450Z 32019KT 290V350 8000 -RA FEW009 BKN015 BKN030 06/04 Q1027 TEMPO 32015G25KT
Conditions at: EDDV (HANNOVER , DE) observed 1450 UTC 17 January 2022
Temperature: 6.0°C (43°F)
Dewpoint: 4.0°C (39°F) [RH = 87%]
Pressure (altimeter): 30.32 inches Hg (1027.0 mb)
Winds: from the NW (320 degrees) at 22 MPH (19 knots; 9.8 m/s)
Visibility: 5 miles ( 8 km)
Ceiling: 1500 feet AGL
Clouds: few clouds at 900 feet AGL
broken clouds at 1500 feet AGL
broken clouds at 3000 feet AGL
Weather: -RA  (light rain)

METAR text: EDDV 171420Z 31016KT 9999 FEW018 SCT040 07/03 Q1027 TEMPO 32020G30KT 4500 -RADZ BKN014
Conditions at: EDDV (HANNOVER , DE) observed 1420 UTC 17 January 2022
Temperature: 7.0°C (45°F)
Dewpoint: 3.0°C (37°F) [RH = 76%]
Pressure (altimeter): 30.32 inches Hg (1027.0 mb)
Winds: from the NW (310 degrees) at 18 MPH (16 knots; 8.2 m/s)
Visibility: 6 or more miles (10+ km)
Ceiling: at least 12,000 feet AGL
Clouds: few clouds at 1800 feet AGL
scattered clouds at 4000 feet AGL
Weather: no significant weather observed at this time

METAR text: EDDV 171350Z 32020G30KT 290V350 9999 FEW013 SCT035 07/04 Q1026 NOSIG
Conditions at: EDDV (HANNOVER , DE) observed 1350 UTC 17 January 2022
Temperature: 7.0°C (45°F)
Dewpoint: 4.0°C (39°F) [RH = 81%]
Pressure (altimeter): 30.30 inches Hg (1026.0 mb)
Winds: from the NW (320 degrees) at 23 MPH (20 knots; 10.3 m/s)
gusting to 34 MPH (30 knots; 15.4 m/s)
Visibility: 6 or more miles (10+ km)
Ceiling: at least 12,000 feet AGL
Clouds: few clouds at 1300 feet AGL
scattered clouds at 3500 feet AGL
Weather: no significant weather observed at this time

METAR text: EDDV 171320Z 32013G23KT 290V350 9999 FEW008 BKN013 08/05 Q1026 BECMG SCT006 BKN015
Conditions at: EDDV (HANNOVER , DE) observed 1320 UTC 17 January 2022
Temperature: 8.0°C (46°F)
Dewpoint: 5.0°C (41°F) [RH = 81%]
Pressure (altimeter): 30.30 inches Hg (1026.0 mb)
Winds: from the NW (320 degrees) at 15 MPH (13 knots; 6.7 m/s)
gusting to 26 MPH (23 knots; 11.8 m/s)
Visibility: 6 or more miles (10+ km)
Ceiling: 1300 feet AGL
Clouds: few clouds at 800 feet AGL
broken clouds at 1300 feet AGL
Weather: no significant weather observed at this time

METAR text: EDDV 171250Z 32018KT 290V350 4000 -RADZ BKN006 BKN016 07/06 Q1026 BECMG 28020G30KT 9999 SCT006 BKN015
Conditions at: EDDV (HANNOVER , DE) observed 1250 UTC 17 January 2022
Temperature: 7.0°C (45°F)
Dewpoint: 6.0°C (43°F) [RH = 93%]
Pressure (altimeter): 30.30 inches Hg (1026.0 mb)
Winds: from the NW (320 degrees) at 21 MPH (18 knots; 9.3 m/s)
Visibility: 2.49 miles (4.01 km)
Ceiling: 600 feet AGL
Clouds: broken clouds at 600 feet AGL
broken clouds at 1600 feet AGL
Weather: -RA -DZ  (light rain, light drizzle)

METAR text: EDDV 171220Z 29017KT 9999 -RADZ BKN008 BKN013 07/06 Q1025 TEMPO 28020G30KT 3500
Conditions at: EDDV (HANNOVER , DE) observed 1220 UTC 17 January 2022
Temperature: 7.0°C (45°F)
Dewpoint: 6.0°C (43°F) [RH = 93%]
Pressure (altimeter): 30.27 inches Hg (1025.0 mb)
Winds: from the WNW (290 degrees) at 20 MPH (17 knots; 8.7 m/s)
Visibility: 6 or more miles (10+ km)
Ceiling: 800 feet AGL
Clouds: broken clouds at 800 feet AGL
broken clouds at 1300 feet AGL
Weather: -RA -DZ  (light rain, light drizzle)

METAR text: EDDV 171150Z 28016KT 8000 -RADZ BKN006 07/06 Q1025 TEMPO 28020G30KT 3500
Conditions at: EDDV (HANNOVER , DE) observed 1150 UTC 17 January 2022
Temperature: 7.0°C (45°F)
Dewpoint: 6.0°C (43°F) [RH = 93%]
Pressure (altimeter): 30.27 inches Hg (1025.0 mb)
Winds: from the W (280 degrees) at 18 MPH (16 knots; 8.2 m/s)
Visibility: 5 miles ( 8 km)
Ceiling: 600 feet AGL
Clouds: broken clouds at 600 feet AGL
Weather: -RA -DZ  (light rain, light drizzle)

METAR text: EDDV 171120Z 28014G24KT 3500 -DZRA BKN006 06/06 Q1025 TEMPO 6000
Conditions at: EDDV (HANNOVER , DE) observed 1120 UTC 17 January 2022
Temperature: 6.0°C (43°F)
Dewpoint: 6.0°C (43°F) [RH = 100%]
Pressure (altimeter): 30.27 inches Hg (1025.0 mb)
Winds: from the W (280 degrees) at 16 MPH (14 knots; 7.2 m/s)
gusting to 28 MPH (24 knots; 12.3 m/s)
Visibility: 2.17 miles (3.49 km)
Ceiling: 600 feet AGL
Clouds: broken clouds at 600 feet AGL
Weather: -DZ -RA  (light drizzle, light rain)

METAR text: EDDV 171050Z 28018KT 9999 BKN008 BKN012 07/05 Q1025 TEMPO 28020G35KT 4500 -DZRA
Conditions at: EDDV (HANNOVER , DE) observed 1050 UTC 17 January 2022
Temperature: 7.0°C (45°F)
Dewpoint: 5.0°C (41°F) [RH = 87%]
Pressure (altimeter): 30.27 inches Hg (1025.0 mb)
Winds: from the W (280 degrees) at 21 MPH (18 knots; 9.3 m/s)
Visibility: 6 or more miles (10+ km)
Ceiling: 800 feet AGL
Clouds: broken clouds at 800 feet AGL
broken clouds at 1200 feet AGL
Weather: no significant weather observed at this time

METAR text: EDDV 171020Z 27017KT 9999 -DZRA FEW006 BKN008 06/05 Q1024 TEMPO 28020G35KT 4500
Conditions at: EDDV (HANNOVER , DE) observed 1020 UTC 17 January 2022
Temperature: 6.0°C (43°F)
Dewpoint: 5.0°C (41°F) [RH = 93%]
Pressure (altimeter): 30.24 inches Hg (1024.0 mb)
Winds: from the W (270 degrees) at 20 MPH (17 knots; 8.7 m/s)
Visibility: 6 or more miles (10+ km)
Ceiling: 800 feet AGL
Clouds: few clouds at 600 feet AGL
broken clouds at 800 feet AGL
Weather: -DZ -RA  (light drizzle, light rain)

METAR text: EDDV 170950Z 27018G28KT 6000 -DZRA BKN008 06/05 Q1024 TEMPO 4500
Conditions at: EDDV (HANNOVER , DE) observed 0950 UTC 17 January 2022
Temperature: 6.0°C (43°F)
Dewpoint: 5.0°C (41°F) [RH = 93%]
Pressure (altimeter): 30.24 inches Hg (1024.0 mb)
Winds: from the W (270 degrees) at 21 MPH (18 knots; 9.3 m/s)
gusting to 32 MPH (28 knots; 14.4 m/s)
Visibility: 4 miles ( 6 km)
Ceiling: 800 feet AGL
Clouds: broken clouds at 800 feet AGL
Weather: -DZ -RA  (light drizzle, light rain)

METAR text: EDDV 170920Z 28017KT 9999 BKN008 06/04 Q1024 TEMPO 28020G35KT 4500 -DZRA
Conditions at: EDDV (HANNOVER , DE) observed 0920 UTC 17 January 2022
Temperature: 6.0°C (43°F)
Dewpoint: 4.0°C (39°F) [RH = 87%]
Pressure (altimeter): 30.24 inches Hg (1024.0 mb)
Winds: from the W (280 degrees) at 20 MPH (17 knots; 8.7 m/s)
Visibility: 6 or more miles (10+ km)
Ceiling: 800 feet AGL
Clouds: broken clouds at 800 feet AGL
Weather: no significant weather observed at this time

METAR text: EDDV 170850Z 27018G28KT 250V310 9999 -DZRA BKN009 BKN013 05/04 Q1024 TEMPO 4500
Conditions at: EDDV (HANNOVER , DE) observed 0850 UTC 17 January 2022
Temperature: 5.0°C (41°F)
Dewpoint: 4.0°C (39°F) [RH = 93%]
Pressure (altimeter): 30.24 inches Hg (1024.0 mb)
Winds: from the W (270 degrees) at 21 MPH (18 knots; 9.3 m/s)
gusting to 32 MPH (28 knots; 14.4 m/s)
Visibility: 6 or more miles (10+ km)
Ceiling: 900 feet AGL
Clouds: broken clouds at 900 feet AGL
broken clouds at 1300 feet AGL
Weather: -DZ -RA  (light drizzle, light rain)

METAR text: EDDV 170820Z 28020KT 9999 BKN012 05/03 Q1024 TEMPO 28020G35KT
Conditions at: EDDV (HANNOVER , DE) observed 0820 UTC 17 January 2022
Temperature: 5.0°C (41°F)
Dewpoint: 3.0°C (37°F) [RH = 87%]
Pressure (altimeter): 30.24 inches Hg (1024.0 mb)
Winds: from the W (280 degrees) at 23 MPH (20 knots; 10.3 m/s)
Visibility: 6 or more miles (10+ km)
Ceiling: 1200 feet AGL
Clouds: broken clouds at 1200 feet AGL
Weather: no significant weather observed at this time

METAR text: EDDV 170750Z 27018G28KT 240V300 9999 BKN015 05/03 Q1023 NOSIG
Conditions at: EDDV (HANNOVER , DE) observed 0750 UTC 17 January 2022
Temperature: 5.0°C (41°F)
Dewpoint: 3.0°C (37°F) [RH = 87%]
Pressure (altimeter): 30.21 inches Hg (1023.0 mb)
Winds: from the W (270 degrees) at 21 MPH (18 knots; 9.3 m/s)
gusting to 32 MPH (28 knots; 14.4 m/s)
Visibility: 6 or more miles (10+ km)
Ceiling: 1500 feet AGL
Clouds: broken clouds at 1500 feet AGL
Weather: no significant weather observed at this time

METAR text: EDDV 170720Z 28019KT 9999 BKN016 05/03 Q1024 TEMPO 28020G35KT
Conditions at: EDDV (HANNOVER , DE) observed 0720 UTC 17 January 2022
Temperature: 5.0°C (41°F)
Dewpoint: 3.0°C (37°F) [RH = 87%]
Pressure (altimeter): 30.24 inches Hg (1024.0 mb)
Winds: from the W (280 degrees) at 22 MPH (19 knots; 9.8 m/s)
Visibility: 6 or more miles (10+ km)
Ceiling: 1600 feet AGL
Clouds: broken clouds at 1600 feet AGL
Weather: no significant weather observed at this time

METAR text: EDDV 170650Z 27018KT 9999 BKN017 05/02 Q1023 TEMPO 28020G35KT
Conditions at: EDDV (HANNOVER , DE) observed 0650 UTC 17 January 2022
Temperature: 5.0°C (41°F)
Dewpoint: 2.0°C (36°F) [RH = 81%]
Pressure (altimeter): 30.21 inches Hg (1023.0 mb)
Winds: from the W (270 degrees) at 21 MPH (18 knots; 9.3 m/s)
Visibility: 6 or more miles (10+ km)
Ceiling: 1700 feet AGL
Clouds: broken clouds at 1700 feet AGL
Weather: no significant weather observed at this time

METAR text: EDDV 170620Z 27017G27KT 9999 BKN018 05/02 Q1023 NOSIG
Conditions at: EDDV (HANNOVER , DE) observed 0620 UTC 17 January 2022
Temperature: 5.0°C (41°F)
Dewpoint: 2.0°C (36°F) [RH = 81%]
Pressure (altimeter): 30.21 inches Hg (1023.0 mb)
Winds: from the W (270 degrees) at 20 MPH (17 knots; 8.7 m/s)
gusting to 31 MPH (27 knots; 13.9 m/s)
Visibility: 6 or more miles (10+ km)
Ceiling: 1800 feet AGL
Clouds: broken clouds at 1800 feet AGL
Weather: no significant weather observed at this time

METAR text: EDDV 170550Z 28020KT 9999 BKN018 05/02 Q1023 TEMPO 28020G35KT
Conditions at: EDDV (HANNOVER , DE) observed 0550 UTC 17 January 2022
Temperature: 5.0°C (41°F)
Dewpoint: 2.0°C (36°F) [RH = 81%]
Pressure (altimeter): 30.21 inches Hg (1023.0 mb)
Winds: from the W (280 degrees) at 23 MPH (20 knots; 10.3 m/s)
Visibility: 6 or more miles (10+ km)
Ceiling: 1800 feet AGL
Clouds: broken clouds at 1800 feet AGL
Weather: no significant weather observed at this time

METAR text: EDDV 170520Z 28020KT 9999 BKN021 05/02 Q1024 TEMPO 28025G35KT
Conditions at: EDDV (HANNOVER , DE) observed 0520 UTC 17 January 2022
Temperature: 5.0°C (41°F)
Dewpoint: 2.0°C (36°F) [RH = 81%]
Pressure (altimeter): 30.24 inches Hg (1024.0 mb)
Winds: from the W (280 degrees) at 23 MPH (20 knots; 10.3 m/s)
Visibility: 6 or more miles (10+ km)
Ceiling: 2100 feet AGL
Clouds: broken clouds at 2100 feet AGL
Weather: no significant weather observed at this time

METAR text: EDDV 170450Z 28019G29KT 9999 BKN021 05/02 Q1024 TEMPO 28025G35KT
Conditions at: EDDV (HANNOVER , DE) observed 0450 UTC 17 January 2022
Temperature: 5.0°C (41°F)
Dewpoint: 2.0°C (36°F) [RH = 81%]
Pressure (altimeter): 30.24 inches Hg (1024.0 mb)
Winds: from the W (280 degrees) at 22 MPH (19 knots; 9.8 m/s)
gusting to 33 MPH (29 knots; 14.9 m/s)
Visibility: 6 or more miles (10+ km)
Ceiling: 2100 feet AGL
Clouds: broken clouds at 2100 feet AGL
Weather: no significant weather observed at this time

METAR text: EDDV 170420Z 27020G30KT 9999 BKN021 05/02 Q1023 TEMPO 28025G35KT
Conditions at: EDDV (HANNOVER , DE) observed 0420 UTC 17 January 2022
Temperature: 5.0°C (41°F)
Dewpoint: 2.0°C (36°F) [RH = 81%]
Pressure (altimeter): 30.21 inches Hg (1023.0 mb)
Winds: from the W (270 degrees) at 23 MPH (20 knots; 10.3 m/s)
gusting to 34 MPH (30 knots; 15.4 m/s)
Visibility: 6 or more miles (10+ km)
Ceiling: 2100 feet AGL
Clouds: broken clouds at 2100 feet AGL
Weather: no significant weather observed at this time

METAR text: EDDV 170350Z 27017KT 9999 SCT020 BKN028 05/02 Q1023 TEMPO 28025G35KT
Conditions at: EDDV (HANNOVER , DE) observed 0350 UTC 17 January 2022
Temperature: 5.0°C (41°F)
Dewpoint: 2.0°C (36°F) [RH = 81%]
Pressure (altimeter): 30.21 inches Hg (1023.0 mb)
Winds: from the W (270 degrees) at 20 MPH (17 knots; 8.7 m/s)
Visibility: 6 or more miles (10+ km)
Ceiling: 2800 feet AGL
Clouds: scattered clouds at 2000 feet AGL
broken clouds at 2800 feet AGL
Weather: no significant weather observed at this time

METAR text: EDDV 170320Z 27015G25KT 9999 -RA SCT019 BKN033 05/03 Q1023
Conditions at: EDDV (HANNOVER , DE) observed 0320 UTC 17 January 2022
Temperature: 5.0°C (41°F)
Dewpoint: 3.0°C (37°F) [RH = 87%]
Pressure (altimeter): 30.21 inches Hg (1023.0 mb)
Winds: from the W (270 degrees) at 17 MPH (15 knots; 7.7 m/s)
gusting to 29 MPH (25 knots; 12.9 m/s)
Visibility: 6 or more miles (10+ km)
Ceiling: 3300 feet AGL
Clouds: scattered clouds at 1900 feet AGL
broken clouds at 3300 feet AGL
Weather: -RA  (light rain)

METAR text: EDDV 170250Z 27016G28KT 9999 -RA SCT019 BKN031 06/02 Q1024
Conditions at: EDDV (HANNOVER , DE) observed 0250 UTC 17 January 2022
Temperature: 6.0°C (43°F)
Dewpoint: 2.0°C (36°F) [RH = 75%]
Pressure (altimeter): 30.24 inches Hg (1024.0 mb)
Winds: from the W (270 degrees) at 18 MPH (16 knots; 8.2 m/s)
gusting to 32 MPH (28 knots; 14.4 m/s)
Visibility: 6 or more miles (10+ km)
Ceiling: 3100 feet AGL
Clouds: scattered clouds at 1900 feet AGL
broken clouds at 3100 feet AGL
Weather: -RA  (light rain)

METAR text: EDDV 170220Z 27014KT 250V310 9999 -RA FEW018 BKN031 05/03 Q1024
Conditions at: EDDV (HANNOVER , DE) observed 0220 UTC 17 January 2022
Temperature: 5.0°C (41°F)
Dewpoint: 3.0°C (37°F) [RH = 87%]
Pressure (altimeter): 30.24 inches Hg (1024.0 mb)
Winds: from the W (270 degrees) at 16 MPH (14 knots; 7.2 m/s)
Visibility: 6 or more miles (10+ km)
Ceiling: 3100 feet AGL
Clouds: few clouds at 1800 feet AGL
broken clouds at 3100 feet AGL
Weather: -RA  (light rain)

METAR text: EDDV 170150Z 27013KT 240V310 9999 -RA FEW011 BKN018 05/03 Q1024
Conditions at: EDDV (HANNOVER , DE) observed 0150 UTC 17 January 2022
Temperature: 5.0°C (41°F)
Dewpoint: 3.0°C (37°F) [RH = 87%]
Pressure (altimeter): 30.24 inches Hg (1024.0 mb)
Winds: from the W (270 degrees) at 15 MPH (13 knots; 6.7 m/s)
Visibility: 6 or more miles (10+ km)
Ceiling: 1800 feet AGL
Clouds: few clouds at 1100 feet AGL
broken clouds at 1800 feet AGL
Weather: -RA  (light rain)

METAR text: EDDV 170120Z 29018KT 250V310 9999 -RA FEW011 SCT016 BKN028 06/02 Q1024
Conditions at: EDDV (HANNOVER , DE) observed 0120 UTC 17 January 2022
Temperature: 6.0°C (43°F)
Dewpoint: 2.0°C (36°F) [RH = 75%]
Pressure (altimeter): 30.24 inches Hg (1024.0 mb)
Winds: from the WNW (290 degrees) at 21 MPH (18 knots; 9.3 m/s)
Visibility: 6 or more miles (10+ km)
Ceiling: 2800 feet AGL
Clouds: few clouds at 1100 feet AGL
scattered clouds at 1600 feet AGL
broken clouds at 2800 feet AGL
Weather: -RA  (light rain)

METAR text: EDDV 170050Z 29016KT 9999 -RA FEW009 BKN013 BKN028 06/04 Q1024
Conditions at: EDDV (HANNOVER , DE) observed 0050 UTC 17 January 2022
Temperature: 6.0°C (43°F)
Dewpoint: 4.0°C (39°F) [RH = 87%]
Pressure (altimeter): 30.24 inches Hg (1024.0 mb)
Winds: from the WNW (290 degrees) at 18 MPH (16 knots; 8.2 m/s)
Visibility: 6 or more miles (10+ km)
Ceiling: 1300 feet AGL
Clouds: few clouds at 900 feet AGL
broken clouds at 1300 feet AGL
broken clouds at 2800 feet AGL
Weather: -RA  (light rain)

METAR text: EDDV 170020Z 28015G25KT 9999 -RA FEW009 BKN013 06/04 Q1024
Conditions at: EDDV (HANNOVER , DE) observed 0020 UTC 17 January 2022
Temperature: 6.0°C (43°F)
Dewpoint: 4.0°C (39°F) [RH = 87%]
Pressure (altimeter): 30.24 inches Hg (1024.0 mb)
Winds: from the W (280 degrees) at 17 MPH (15 knots; 7.7 m/s)
gusting to 29 MPH (25 knots; 12.9 m/s)
Visibility: 6 or more miles (10+ km)
Ceiling: 1300 feet AGL
Clouds: few clouds at 900 feet AGL
broken clouds at 1300 feet AGL
Weather: -RA  (light rain)

METAR text: EDDV 162350Z 28016KT 240V300 9999 -RA FEW009 BKN013 06/04 Q1024
Conditions at: EDDV (HANNOVER , DE) observed 2350 UTC 16 January 2022
Temperature: 6.0°C (43°F)
Dewpoint: 4.0°C (39°F) [RH = 87%]
Pressure (altimeter): 30.24 inches Hg (1024.0 mb)
Winds: from the W (280 degrees) at 18 MPH (16 knots; 8.2 m/s)
Visibility: 6 or more miles (10+ km)
Ceiling: 1300 feet AGL
Clouds: few clouds at 900 feet AGL
broken clouds at 1300 feet AGL
Weather: -RA  (light rain)

Forecast for: EDDV (HANNOVER , DE)
Text: TAF EDDV 180500Z 1806/1906 29007KT 8000 BKN007
Forecast period: 0600 to 1200 UTC 18 January 2022
Forecast type: FROM: standard forecast or significant change
Winds: from the WNW (290 degrees) at 8 MPH (7 knots; 3.6 m/s)
Visibility: 5 miles (8 km)
Ceiling: 700 feet AGL
Clouds: broken clouds at 700 feet AGL
Weather: no significant weather forecast for this period
Text: TEMPO 1806/1812 4500 BR
Forecast period: 0600 to 1200 UTC 18 January 2022
Forecast type: TEMPORARY: The following changes expected for less than half the time period
Visibility: 2.80 miles (4.51 km)
Ceiling: unknown
Clouds: missing
Weather: BR  (mist)
Text: PROB40
Forecast period: 0600 to 0900 UTC 18 January 2022
Forecast type: TEMPORARY: The following changes expected for less than half the time period
Visibility: 1.24 miles (2.00 km)
Ceiling: 200 feet AGL
Clouds: overcast cloud deck at 200 feet AGL
Weather: DZ BR  (moderate drizzle, mist)
Text: TEMPO 1806/1809 2000 DZ BR OVC002
Forecast period: 0600 to 1200 UTC 18 January 2022
Forecast type: TEMPORARY: The following changes expected for less than half the time period
Visibility: missing
Ceiling: 2000 feet AGL
Clouds: scattered clouds at 600 feet AGL
broken clouds at 2000 feet AGL
Weather: no significant weather forecast for this period
Text: PROB30
Forecast period: 1200 to 1700 UTC 18 January 2022
Forecast type: BECOMING: Conditions expected to become as follows by 1400 UTC 18 January 2022
Winds: from the WNW (290 degrees) at 8 MPH (7 knots; 3.6 m/s)
Visibility: 5 miles (8 km)
Ceiling: at least 12,000 feet AGL
Clouds: scattered clouds at 1300 feet AGL
Weather: no significant weather forecast for this period
Text: TEMPO 1806/1812 SCT006 BKN020
Forecast period: 1700 UTC 18 January 2022 to 0600 UTC 19 January 2022
Forecast type: BECOMING: Conditions expected to become as follows by 1900 UTC 18 January 2022
Winds: from the SW (230 degrees) at 5 MPH (4 knots; 2.1 m/s)
Visibility: 5 miles (8 km)
Ceiling: 500 feet AGL
Clouds: broken clouds at 500 feet AGL
Weather: no significant weather forecast for this period
Text: BECMG 1812/1814 SCT013
Forecast period: 1900 UTC 18 January 2022 to 0600 UTC 19 January 2022
Forecast type: TEMPORARY: The following changes expected for less than half the time period
Visibility: 2.17 miles (3.49 km)
Ceiling: unknown
Clouds: missing
Weather: BR  (mist)
Text: BECMG 1817/1819 23004KT BKN005
Forecast period: 0100 to 0600 UTC 19 January 2022
Forecast type: TEMPORARY: The following changes expected for less than half the time period
Visibility: 0.93 miles (1.50 km)
Ceiling: 200 feet AGL
Clouds: overcast cloud deck at 200 feet AGL
Weather: BR  (mist)